sensor_id;sensor_type;location;lat;lon;timestamp;pressure;altitude;pressure_sealevel;temperature;humidity
9139;BME280;4604;48.616;9.548;2023-02-20T00:01:56;97990.09;;;7.87;98.07
9139;BME280;4604;48.616;9.548;2023-02-20T00:04:23;98000.59;;;7.87;97.87
9139;BME280;4604;48.616;9.548;2023-02-20T00:06:50;98002.41;;;7.86;98.29
9139;BME280;4604;48.616;9.548;2023-02-20T00:09:16;98004.81;;;7.89;98.17
9139;BME280;4604;48.616;9.548;2023-02-20T00:11:43;98006.25;;;7.95;97.80
9139;BME280;4604;48.616;9.548;2023-02-20T00:14:11;98008.56;;;8.00;97.90
9139;BME280;4604;48.616;9.548;2023-02-20T00:16:38;98007.66;;;7.86;98.29
9139;BME280;4604;48.616;9.548;2023-02-20T00:19:06;98005.03;;;7.86;98.51
9139;BME280;4604;48.616;9.548;2023-02-20T00:21:32;98000.25;;;7.93;98.08
9139;BME280;4604;48.616;9.548;2023-02-20T00:23:59;98000.59;;;7.87;98.34
9139;BME280;4604;48.616;9.548;2023-02-20T00:26:26;98003.91;;;7.76;99.39
9139;BME280;4604;48.616;9.548;2023-02-20T00:28:52;98006.75;;;7.73;99.83
9139;BME280;4604;48.616;9.548;2023-02-20T00:31:19;98005.97;;;7.85;98.90
9139;BME280;4604;48.616;9.548;2023-02-20T00:33:45;98004.38;;;7.83;98.51
9139;BME280;4604;48.616;9.548;2023-02-20T00:36:18;97994.31;;;7.75;99.24
9139;BME280;4604;48.616;9.548;2023-02-20T00:38:45;97998.47;;;7.79;98.91
9139;BME280;4604;48.616;9.548;2023-02-20T00:41:13;97997.81;;;7.76;99.55
9139;BME280;4604;48.616;9.548;2023-02-20T00:43:42;97995.47;;;7.85;98.39
9139;BME280;4604;48.616;9.548;2023-02-20T00:46:10;98003.16;;;7.74;98.73
9139;BME280;4604;48.616;9.548;2023-02-20T00:48:37;98001.09;;;7.79;98.79
9139;BME280;4604;48.616;9.548;2023-02-20T00:51:03;98005.03;;;7.72;99.09
9139;BME280;4604;48.616;9.548;2023-02-20T00:53:31;97992.28;;;7.66;98.94
9139;BME280;4604;48.616;9.548;2023-02-20T00:55:58;98016.84;;;7.79;98.40
9139;BME280;4604;48.616;9.548;2023-02-20T00:58:25;98025.03;;;7.75;98.34
9139;BME280;4604;48.616;9.548;2023-02-20T01:00:51;98029.25;;;7.77;98.77
9139;BME280;4604;48.616;9.548;2023-02-20T01:03:18;98036.84;;;7.82;98.17
9139;BME280;4604;48.616;9.548;2023-02-20T01:05:44;98031.50;;;7.83;97.62
9139;BME280;4604;48.616;9.548;2023-02-20T01:08:11;98036.19;;;7.78;98.04
9139;BME280;4604;48.616;9.548;2023-02-20T01:10:39;98023.78;;;7.80;98.36
9139;BME280;4604;48.616;9.548;2023-02-20T01:13:06;98030.19;;;7.76;98.29
9139;BME280;4604;48.616;9.548;2023-02-20T01:15:32;98019.75;;;7.75;98.54
9139;BME280;4604;48.616;9.548;2023-02-20T01:17:59;98014.31;;;7.78;97.92
9139;BME280;4604;48.616;9.548;2023-02-20T01:20:26;98015.75;;;7.83;97.41
9139;BME280;4604;48.616;9.548;2023-02-20T01:22:52;98009.53;;;7.84;96.73
9139;BME280;4604;48.616;9.548;2023-02-20T01:25:19;98013.94;;;7.84;96.50
9139;BME280;4604;48.616;9.548;2023-02-20T01:27:47;98010.97;;;7.76;97.78
9139;BME280;4604;48.616;9.548;2023-02-20T01:30:14;98010.19;;;7.88;96.24
9139;BME280;4604;48.616;9.548;2023-02-20T01:32:41;97993.28;;;7.78;96.80
9139;BME280;4604;48.616;9.548;2023-02-20T01:35:08;97980.53;;;7.71;96.63
9139;BME280;4604;48.616;9.548;2023-02-20T01:37:34;97996.50;;;7.83;95.17
9139;BME280;4604;48.616;9.548;2023-02-20T01:40:02;97998.47;;;7.79;95.82
9139;BME280;4604;48.616;9.548;2023-02-20T01:42:31;97998.75;;;7.75;96.76
9139;BME280;4604;48.616;9.548;2023-02-20T01:45:28;97999.13;;;7.83;95.14
9139;BME280;4604;48.616;9.548;2023-02-20T01:47:57;97989.63;;;7.80;94.10
9139;BME280;4604;48.616;9.548;2023-02-20T01:50:27;97987.66;;;7.84;92.96
9139;BME280;4604;48.616;9.548;2023-02-20T01:52:58;97987.47;;;7.87;91.69
9139;BME280;4604;48.616;9.548;2023-02-20T01:55:29;97985.53;;;7.76;92.09
9139;BME280;4604;48.616;9.548;2023-02-20T01:57:58;98000.88;;;7.82;92.20
9139;BME280;4604;48.616;9.548;2023-02-20T02:00:27;97988.22;;;7.89;91.22
9139;BME280;4604;48.616;9.548;2023-02-20T02:02:57;97980.13;;;7.92;91.53
9139;BME280;4604;48.616;9.548;2023-02-20T02:05:26;97990.75;;;7.90;91.72
9139;BME280;4604;48.616;9.548;2023-02-20T02:07:54;97994.44;;;7.88;92.59
9139;BME280;4604;48.616;9.548;2023-02-20T02:10:24;97983.03;;;7.87;93.50
9139;BME280;4604;48.616;9.548;2023-02-20T02:12:53;97986.63;;;7.86;93.56
9139;BME280;4604;48.616;9.548;2023-02-20T02:15:22;97987.75;;;7.82;93.28
9139;BME280;4604;48.616;9.548;2023-02-20T02:18:06;97988.50;;;7.84;93.52
9139;BME280;4604;48.616;9.548;2023-02-20T02:21:07;97975.16;;;7.87;93.57
9139;BME280;4604;48.616;9.548;2023-02-20T02:24:14;97963.81;;;7.87;93.62
9139;BME280;4604;48.616;9.548;2023-02-20T02:30:13;97961.59;;;7.81;93.34
9139;BME280;4604;48.616;9.548;2023-02-20T02:36:13;97945.31;;;7.88;93.20
9139;BME280;4604;48.616;9.548;2023-02-20T02:38:49;97939.69;;;7.80;92.67
9139;BME280;4604;48.616;9.548;2023-02-20T02:41:22;97932.97;;;7.76;92.17
9139;BME280;4604;48.616;9.548;2023-02-20T02:43:58;97949.00;;;7.71;92.01
9139;BME280;4604;48.616;9.548;2023-02-20T02:46:29;97961.19;;;7.72;89.85
9139;BME280;4604;48.616;9.548;2023-02-20T02:49:05;97956.50;;;7.78;89.81
9139;BME280;4604;48.616;9.548;2023-02-20T02:51:36;97964.22;;;7.81;90.26
9139;BME280;4604;48.616;9.548;2023-02-20T02:54:04;97971.06;;;7.69;91.17
9139;BME280;4604;48.616;9.548;2023-02-20T02:56:33;97963.19;;;7.69;92.35
9139;BME280;4604;48.616;9.548;2023-02-20T02:59:00;97961.22;;;7.58;92.53
9139;BME280;4604;48.616;9.548;2023-02-20T03:01:27;97961.97;;;7.60;93.22
9139;BME280;4604;48.616;9.548;2023-02-20T03:03:56;97965.06;;;7.53;94.44
9139;BME280;4604;48.616;9.548;2023-02-20T03:06:27;97967.91;;;7.49;94.29
9139;BME280;4604;48.616;9.548;2023-02-20T03:09:00;97965.91;;;7.53;93.59
9139;BME280;4604;48.616;9.548;2023-02-20T03:11:28;97959.81;;;7.53;94.22
9139;BME280;4604;48.616;9.548;2023-02-20T03:14:01;97941.22;;;7.56;93.91
9139;BME280;4604;48.616;9.548;2023-02-20T03:16:52;97955.31;;;7.55;93.32
9139;BME280;4604;48.616;9.548;2023-02-20T03:19:25;97955.78;;;7.61;91.76
9139;BME280;4604;48.616;9.548;2023-02-20T03:21:54;97949.78;;;7.59;91.43
9139;BME280;4604;48.616;9.548;2023-02-20T03:24:24;97945.63;;;7.69;90.45
9139;BME280;4604;48.616;9.548;2023-02-20T03:26:52;97948.19;;;7.57;91.09
9139;BME280;4604;48.616;9.548;2023-02-20T03:29:23;97943.50;;;7.62;90.60
9139;BME280;4604;48.616;9.548;2023-02-20T03:31:56;97949.09;;;7.56;90.71
9139;BME280;4604;48.616;9.548;2023-02-20T03:34:43;97945.91;;;7.65;89.90
9139;BME280;4604;48.616;9.548;2023-02-20T03:37:30;97948.34;;;7.68;88.64
9139;BME280;4604;48.616;9.548;2023-02-20T03:40:19;97947.22;;;7.72;87.95
9139;BME280;4604;48.616;9.548;2023-02-20T03:43:08;97945.63;;;7.84;87.52
9139;BME280;4604;48.616;9.548;2023-02-20T03:45:49;97957.66;;;7.74;88.02
9139;BME280;4604;48.616;9.548;2023-02-20T03:48:19;97960.28;;;7.74;87.96
9139;BME280;4604;48.616;9.548;2023-02-20T03:50:48;97957.16;;;7.81;86.23
9139;BME280;4604;48.616;9.548;2023-02-20T03:53:15;97960.72;;;7.80;86.36
9139;BME280;4604;48.616;9.548;2023-02-20T03:55:44;97959.53;;;7.71;85.12
9139;BME280;4604;48.616;9.548;2023-02-20T03:58:14;97951.91;;;7.81;83.61
9139;BME280;4604;48.616;9.548;2023-02-20T04:00:46;97959.88;;;7.80;83.19
9139;BME280;4604;48.616;9.548;2023-02-20T04:03:16;97952.94;;;7.79;82.86
9139;BME280;4604;48.616;9.548;2023-02-20T04:05:47;97958.00;;;7.82;82.49
9139;BME280;4604;48.616;9.548;2023-02-20T04:08:17;97960.16;;;7.89;81.14
9139;BME280;4604;48.616;9.548;2023-02-20T04:10:51;97946.47;;;7.70;82.23
9139;BME280;4604;48.616;9.548;2023-02-20T04:13:19;97971.63;;;7.74;82.08
9139;BME280;4604;48.616;9.548;2023-02-20T04:15:47;97953.16;;;7.76;81.88
9139;BME280;4604;48.616;9.548;2023-02-20T04:18:16;97949.22;;;7.68;82.81
9139;BME280;4604;48.616;9.548;2023-02-20T04:20:45;97947.31;;;7.70;82.32
9139;BME280;4604;48.616;9.548;2023-02-20T04:23:15;97945.56;;;7.71;82.68
9139;BME280;4604;48.616;9.548;2023-02-20T04:25:44;97954.84;;;7.62;83.32
9139;BME280;4604;48.616;9.548;2023-02-20T04:28:14;97944.91;;;7.53;83.51
9139;BME280;4604;48.616;9.548;2023-02-20T04:30:42;97949.09;;;7.56;84.16
9139;BME280;4604;48.616;9.548;2023-02-20T04:33:09;97951.09;;;7.52;84.50
9139;BME280;4604;48.616;9.548;2023-02-20T04:35:36;97954.19;;;7.44;84.92
9139;BME280;4604;48.616;9.548;2023-02-20T04:38:03;97947.25;;;7.43;85.51
9139;BME280;4604;48.616;9.548;2023-02-20T04:40:30;97950.69;;;7.58;83.98
9139;BME280;4604;48.616;9.548;2023-02-20T04:42:57;97937.28;;;7.48;83.48
9139;BME280;4604;48.616;9.548;2023-02-20T04:45:25;97932.16;;;7.61;83.00
9139;BME280;4604;48.616;9.548;2023-02-20T04:47:52;97930.56;;;7.44;83.45
9139;BME280;4604;48.616;9.548;2023-02-20T04:50:21;97939.09;;;7.34;84.26
9139;BME280;4604;48.616;9.548;2023-02-20T04:52:48;97943.22;;;7.23;85.15
9139;BME280;4604;48.616;9.548;2023-02-20T04:55:14;97948.94;;;7.30;84.89
9139;BME280;4604;48.616;9.548;2023-02-20T04:57:41;97942.84;;;7.44;83.96
9139;BME280;4604;48.616;9.548;2023-02-20T05:00:09;97936.00;;;7.41;84.44
9139;BME280;4604;48.616;9.548;2023-02-20T05:02:38;97945.19;;;7.34;83.88
9139;BME280;4604;48.616;9.548;2023-02-20T05:05:06;97931.22;;;7.34;83.27
9139;BME280;4604;48.616;9.548;2023-02-20T05:07:40;97931.13;;;7.35;83.64
9139;BME280;4604;48.616;9.548;2023-02-20T05:10:07;97930.00;;;7.25;84.28
9139;BME280;4604;48.616;9.548;2023-02-20T05:12:33;97946.78;;;7.22;84.96
9139;BME280;4604;48.616;9.548;2023-02-20T05:15:00;97937.78;;;7.12;85.53
9139;BME280;4604;48.616;9.548;2023-02-20T05:17:26;97946.50;;;7.13;85.48
9139;BME280;4604;48.616;9.548;2023-02-20T05:19:54;97940.59;;;7.23;85.52
9139;BME280;4604;48.616;9.548;2023-02-20T05:22:21;97945.47;;;7.15;86.26
9139;BME280;4604;48.616;9.548;2023-02-20T05:24:48;97940.88;;;7.19;86.67
9139;BME280;4604;48.616;9.548;2023-02-20T05:27:18;97944.16;;;7.08;87.20
9139;BME280;4604;48.616;9.548;2023-02-20T05:29:45;97952.22;;;7.05;87.34
9139;BME280;4604;48.616;9.548;2023-02-20T05:32:12;97948.16;;;6.99;88.21
9139;BME280;4604;48.616;9.548;2023-02-20T05:34:39;97949.75;;;7.02;88.00
9139;BME280;4604;48.616;9.548;2023-02-20T05:37:08;97953.31;;;7.01;88.36
9139;BME280;4604;48.616;9.548;2023-02-20T05:39:35;97953.59;;;6.96;87.98
9139;BME280;4604;48.616;9.548;2023-02-20T05:42:02;97952.94;;;6.93;87.93
9139;BME280;4604;48.616;9.548;2023-02-20T05:44:28;97962.69;;;6.91;87.54
9139;BME280;4604;48.616;9.548;2023-02-20T05:46:55;97962.78;;;6.89;87.55
9139;BME280;4604;48.616;9.548;2023-02-20T05:49:22;97961.09;;;6.88;87.97
9139;BME280;4604;48.616;9.548;2023-02-20T05:51:49;97943.34;;;6.77;87.27
9139;BME280;4604;48.616;9.548;2023-02-20T05:54:17;97953.19;;;6.74;87.57
9139;BME280;4604;48.616;9.548;2023-02-20T05:56:45;97945.41;;;6.72;87.31
9139;BME280;4604;48.616;9.548;2023-02-20T05:59:13;97941.34;;;6.67;88.27
9139;BME280;4604;48.616;9.548;2023-02-20T06:01:40;97947.72;;;6.62;88.35
9139;BME280;4604;48.616;9.548;2023-02-20T06:04:06;97947.41;;;6.53;88.28
9139;BME280;4604;48.616;9.548;2023-02-20T06:06:34;97953.84;;;6.47;88.98
9139;BME280;4604;48.616;9.548;2023-02-20T06:09:02;97945.59;;;6.39;89.04
9139;BME280;4604;48.616;9.548;2023-02-20T06:11:30;97960.81;;;6.32;89.29
9139;BME280;4604;48.616;9.548;2023-02-20T06:13:57;97962.94;;;6.26;90.35
9139;BME280;4604;48.616;9.548;2023-02-20T06:16:25;97958.88;;;6.20;89.54
9139;BME280;4604;48.616;9.548;2023-02-20T06:18:52;97955.75;;;6.13;90.08
9139;BME280;4604;48.616;9.548;2023-02-20T06:21:20;97955.25;;;6.07;90.51
9139;BME280;4604;48.616;9.548;2023-02-20T06:23:48;97956.53;;;6.15;89.72
9139;BME280;4604;48.616;9.548;2023-02-20T06:26:15;97953.22;;;6.12;90.06
9139;BME280;4604;48.616;9.548;2023-02-20T06:28:44;97954.00;;;5.98;90.61
9139;BME280;4604;48.616;9.548;2023-02-20T06:31:11;97956.63;;;5.98;90.20
9139;BME280;4604;48.616;9.548;2023-02-20T06:33:38;97962.16;;;5.92;90.69
9139;BME280;4604;48.616;9.548;2023-02-20T06:36:05;97961.16;;;5.94;91.04
9139;BME280;4604;48.616;9.548;2023-02-20T06:38:32;97964.88;;;5.90;91.34
9139;BME280;4604;48.616;9.548;2023-02-20T06:40:58;97968.41;;;5.89;91.97
9139;BME280;4604;48.616;9.548;2023-02-20T06:43:25;97970.97;;;5.91;92.15
9139;BME280;4604;48.616;9.548;2023-02-20T06:45:53;97967.25;;;5.95;91.87
9139;BME280;4604;48.616;9.548;2023-02-20T06:48:20;97953.47;;;5.91;91.71
9139;BME280;4604;48.616;9.548;2023-02-20T06:50:46;97958.63;;;5.93;91.86
9139;BME280;4604;48.616;9.548;2023-02-20T06:53:13;97955.03;;;5.95;91.33
9139;BME280;4604;48.616;9.548;2023-02-20T06:55:40;97964.56;;;5.96;91.42
9139;BME280;4604;48.616;9.548;2023-02-20T06:58:06;97962.88;;;5.95;91.26
9139;BME280;4604;48.616;9.548;2023-02-20T07:00:33;97962.94;;;5.94;91.02
9139;BME280;4604;48.616;9.548;2023-02-20T07:03:01;97969.09;;;5.93;91.24
9139;BME280;4604;48.616;9.548;2023-02-20T07:05:27;97975.25;;;5.92;91.36
9139;BME280;4604;48.616;9.548;2023-02-20T07:07:54;97979.72;;;5.90;91.36
9139;BME280;4604;48.616;9.548;2023-02-20T07:10:21;97978.81;;;5.91;91.41
9139;BME280;4604;48.616;9.548;2023-02-20T07:12:47;97981.63;;;5.88;91.59
9139;BME280;4604;48.616;9.548;2023-02-20T07:15:14;97981.44;;;5.91;91.31
9139;BME280;4604;48.616;9.548;2023-02-20T07:17:40;97994.06;;;6.00;91.31
9139;BME280;4604;48.616;9.548;2023-02-20T07:20:09;98003.38;;;6.06;91.12
9139;BME280;4604;48.616;9.548;2023-02-20T07:22:36;98001.16;;;6.14;90.47
9139;BME280;4604;48.616;9.548;2023-02-20T07:25:03;97993.72;;;6.22;89.76
9139;BME280;4604;48.616;9.548;2023-02-20T07:27:31;97998.94;;;6.38;89.29
9139;BME280;4604;48.616;9.548;2023-02-20T07:29:57;97993.44;;;6.42;89.91
9139;BME280;4604;48.616;9.548;2023-02-20T07:32:24;98006.69;;;6.55;89.33
9139;BME280;4604;48.616;9.548;2023-02-20T07:34:50;98000.09;;;6.64;88.65
9139;BME280;4604;48.616;9.548;2023-02-20T07:37:18;98001.91;;;6.78;88.00
9139;BME280;4604;48.616;9.548;2023-02-20T07:39:45;98001.28;;;6.89;87.89
9139;BME280;4604;48.616;9.548;2023-02-20T07:42:12;97995.41;;;6.99;87.24
9139;BME280;4604;48.616;9.548;2023-02-20T07:44:38;97999.09;;;7.11;85.88
9139;BME280;4604;48.616;9.548;2023-02-20T07:47:05;97988.81;;;7.22;85.22
9139;BME280;4604;48.616;9.548;2023-02-20T07:49:31;97987.22;;;7.34;84.44
9139;BME280;4604;48.616;9.548;2023-02-20T07:51:58;97993.22;;;7.50;83.79
9139;BME280;4604;48.616;9.548;2023-02-20T07:54:26;97983.09;;;7.59;83.22
9139;BME280;4604;48.616;9.548;2023-02-20T07:56:53;97987.88;;;7.81;80.94
9139;BME280;4604;48.616;9.548;2023-02-20T07:59:20;97976.59;;;7.93;80.26
9139;BME280;4604;48.616;9.548;2023-02-20T08:01:47;97985.16;;;8.09;78.94
9139;BME280;4604;48.616;9.548;2023-02-20T08:04:14;97981.66;;;8.23;78.41
9139;BME280;4604;48.616;9.548;2023-02-20T08:06:40;97964.88;;;8.39;77.95
9139;BME280;4604;48.616;9.548;2023-02-20T08:09:07;97963.81;;;8.55;76.78
9139;BME280;4604;48.616;9.548;2023-02-20T08:11:36;97960.28;;;8.69;75.52
9139;BME280;4604;48.616;9.548;2023-02-20T08:14:04;97969.91;;;8.83;73.65
9139;BME280;4604;48.616;9.548;2023-02-20T08:16:30;97964.44;;;8.99;72.74
9139;BME280;4604;48.616;9.548;2023-02-20T08:18:58;97957.59;;;9.09;71.96
9139;BME280;4604;48.616;9.548;2023-02-20T08:21:24;97955.38;;;9.16;70.25
9139;BME280;4604;48.616;9.548;2023-02-20T08:23:51;97952.22;;;9.24;69.12
9139;BME280;4604;48.616;9.548;2023-02-20T08:26:19;97952.84;;;9.14;67.45
9139;BME280;4604;48.616;9.548;2023-02-20T08:28:48;97941.78;;;9.09;67.21
9139;BME280;4604;48.616;9.548;2023-02-20T08:31:15;97950.25;;;9.27;66.73
9139;BME280;4604;48.616;9.548;2023-02-20T08:33:42;97953.47;;;9.43;67.24
9139;BME280;4604;48.616;9.548;2023-02-20T08:36:08;97959.81;;;9.41;65.60
9139;BME280;4604;48.616;9.548;2023-02-20T08:38:37;97947.59;;;9.27;66.63
9139;BME280;4604;48.616;9.548;2023-02-20T08:41:04;97947.38;;;9.43;66.70
9139;BME280;4604;48.616;9.548;2023-02-20T08:43:32;97943.13;;;9.53;65.18
9139;BME280;4604;48.616;9.548;2023-02-20T08:46:00;97945.38;;;9.47;65.08
9139;BME280;4604;48.616;9.548;2023-02-20T08:48:27;97940.94;;;9.47;64.78
9139;BME280;4604;48.616;9.548;2023-02-20T08:50:54;97940.31;;;9.43;64.83
9139;BME280;4604;48.616;9.548;2023-02-20T08:53:20;97937.78;;;9.42;64.80
9139;BME280;4604;48.616;9.548;2023-02-20T08:55:48;97928.31;;;9.39;64.64
9139;BME280;4604;48.616;9.548;2023-02-20T08:58:18;97932.41;;;9.56;65.39
9139;BME280;4604;48.616;9.548;2023-02-20T09:00:45;97936.47;;;9.60;64.19
9139;BME280;4604;48.616;9.548;2023-02-20T09:03:13;97943.22;;;9.64;63.76
9139;BME280;4604;48.616;9.548;2023-02-20T09:05:40;97933.94;;;9.72;64.21
9139;BME280;4604;48.616;9.548;2023-02-20T09:08:08;97920.34;;;9.78;63.28
9139;BME280;4604;48.616;9.548;2023-02-20T09:10:34;97929.38;;;9.86;62.81
9139;BME280;4604;48.616;9.548;2023-02-20T09:13:01;97928.63;;;9.84;61.51
9139;BME280;4604;48.616;9.548;2023-02-20T09:15:28;97920.69;;;9.97;62.13
9139;BME280;4604;48.616;9.548;2023-02-20T09:17:56;97923.72;;;10.04;62.42
9139;BME280;4604;48.616;9.548;2023-02-20T09:20:24;97923.91;;;10.14;62.73
9139;BME280;4604;48.616;9.548;2023-02-20T09:22:50;97921.91;;;10.04;62.78
9139;BME280;4604;48.616;9.548;2023-02-20T09:25:18;97925.66;;;9.89;62.34
9139;BME280;4604;48.616;9.548;2023-02-20T09:27:44;97919.97;;;9.95;62.28
9139;BME280;4604;48.616;9.548;2023-02-20T09:30:15;97922.56;;;10.08;61.79
9139;BME280;4604;48.616;9.548;2023-02-20T09:32:43;97918.38;;;10.17;61.48
9139;BME280;4604;48.616;9.548;2023-02-20T09:35:14;97919.25;;;10.17;60.16
9139;BME280;4604;48.616;9.548;2023-02-20T09:37:44;97911.22;;;10.19;60.96
9139;BME280;4604;48.616;9.548;2023-02-20T09:40:11;97914.31;;;10.13;60.25
9139;BME280;4604;48.616;9.548;2023-02-20T09:42:45;97920.75;;;10.08;60.90
9139;BME280;4604;48.616;9.548;2023-02-20T09:45:18;97910.19;;;10.08;60.94
9139;BME280;4604;48.616;9.548;2023-02-20T09:48:01;97902.34;;;10.20;60.59
9139;BME280;4604;48.616;9.548;2023-02-20T09:50:36;97912.13;;;10.31;59.85
9139;BME280;4604;48.616;9.548;2023-02-20T09:53:15;97914.25;;;10.25;59.59
9139;BME280;4604;48.616;9.548;2023-02-20T09:55:46;97905.56;;;10.36;60.47
9139;BME280;4604;48.616;9.548;2023-02-20T09:58:20;97901.16;;;10.37;59.38
9139;BME280;4604;48.616;9.548;2023-02-20T10:00:47;97902.38;;;10.44;59.46
9139;BME280;4604;48.616;9.548;2023-02-20T10:03:21;97891.84;;;10.55;59.95
9139;BME280;4604;48.616;9.548;2023-02-20T10:05:51;97900.78;;;10.77;58.55
9139;BME280;4604;48.616;9.548;2023-02-20T10:08:20;97893.06;;;10.62;58.64
9139;BME280;4604;48.616;9.548;2023-02-20T10:10:49;97895.16;;;10.81;58.76
9139;BME280;4604;48.616;9.548;2023-02-20T10:13:29;97884.63;;;10.92;57.94
9139;BME280;4604;48.616;9.548;2023-02-20T10:16:02;97885.81;;;11.00;57.90
9139;BME280;4604;48.616;9.548;2023-02-20T10:18:38;97873.13;;;11.27;57.23
9139;BME280;4604;48.616;9.548;2023-02-20T10:21:15;97873.00;;;11.18;57.89
9139;BME280;4604;48.616;9.548;2023-02-20T10:23:48;97877.69;;;11.25;56.68
9139;BME280;4604;48.616;9.548;2023-02-20T10:26:19;97877.56;;;11.27;55.89
9139;BME280;4604;48.616;9.548;2023-02-20T10:28:47;97867.09;;;11.14;56.31
9139;BME280;4604;48.616;9.548;2023-02-20T10:31:25;97872.50;;;11.12;56.33
9139;BME280;4604;48.616;9.548;2023-02-20T10:33:58;97878.28;;;11.18;56.52
9139;BME280;4604;48.616;9.548;2023-02-20T10:36:29;97856.44;;;11.27;55.78
9139;BME280;4604;48.616;9.548;2023-02-20T10:39:07;97860.34;;;11.55;55.78
9139;BME280;4604;48.616;9.548;2023-02-20T10:41:39;97864.81;;;11.66;56.09
9139;BME280;4604;48.616;9.548;2023-02-20T10:44:15;97860.81;;;11.60;55.22
9139;BME280;4604;48.616;9.548;2023-02-20T10:46:47;97855.75;;;11.79;55.92
9139;BME280;4604;48.616;9.548;2023-02-20T10:49:19;97864.78;;;11.88;54.76
9139;BME280;4604;48.616;9.548;2023-02-20T10:51:54;97865.75;;;11.76;54.76
9139;BME280;4604;48.616;9.548;2023-02-20T10:54:28;97868.03;;;11.69;54.67
9139;BME280;4604;48.616;9.548;2023-02-20T10:56:59;97866.94;;;11.72;56.12
9139;BME280;4604;48.616;9.548;2023-02-20T10:59:32;97864.13;;;11.85;55.96
9139;BME280;4604;48.616;9.548;2023-02-20T11:02:04;97855.16;;;11.76;55.88
9139;BME280;4604;48.616;9.548;2023-02-20T11:04:38;97866.34;;;11.68;53.81
9139;BME280;4604;48.616;9.548;2023-02-20T11:07:09;97859.16;;;11.59;54.07
9139;BME280;4604;48.616;9.548;2023-02-20T11:09:39;97849.53;;;11.58;54.57
9139;BME280;4604;48.616;9.548;2023-02-20T11:12:07;97857.97;;;11.63;54.14
9139;BME280;4604;48.616;9.548;2023-02-20T11:14:43;97848.06;;;11.65;54.65
9139;BME280;4604;48.616;9.548;2023-02-20T11:17:12;97841.72;;;11.56;53.71
9139;BME280;4604;48.616;9.548;2023-02-20T11:19:42;97840.13;;;11.76;53.45
9139;BME280;4604;48.616;9.548;2023-02-20T11:22:09;97827.56;;;12.01;53.25
9139;BME280;4604;48.616;9.548;2023-02-20T11:24:39;97823.63;;;12.28;52.59
9139;BME280;4604;48.616;9.548;2023-02-20T11:27:10;97816.50;;;12.28;52.49
9139;BME280;4604;48.616;9.548;2023-02-20T11:29:46;97817.53;;;12.79;51.66
9139;BME280;4604;48.616;9.548;2023-02-20T11:32:23;97825.94;;;12.63;50.39
9139;BME280;4604;48.616;9.548;2023-02-20T11:35:03;97822.72;;;12.59;50.58
9139;BME280;4604;48.616;9.548;2023-02-20T11:37:30;97830.22;;;12.54;50.64
9139;BME280;4604;48.616;9.548;2023-02-20T11:39:59;97813.38;;;12.34;51.30
9139;BME280;4604;48.616;9.548;2023-02-20T11:42:31;97810.31;;;12.18;50.96
9139;BME280;4604;48.616;9.548;2023-02-20T11:45:14;97810.75;;;12.23;50.91
9139;BME280;4604;48.616;9.548;2023-02-20T11:47:41;97806.75;;;12.29;51.84
9139;BME280;4604;48.616;9.548;2023-02-20T11:50:12;97805.88;;;12.39;50.59
9139;BME280;4604;48.616;9.548;2023-02-20T11:52:54;97790.44;;;12.45;51.13
9139;BME280;4604;48.616;9.548;2023-02-20T11:55:24;97800.16;;;12.65;50.27
9139;BME280;4604;48.616;9.548;2023-02-20T11:57:51;97797.63;;;12.54;50.85
9139;BME280;4604;48.616;9.548;2023-02-20T12:00:24;97801.88;;;12.66;50.31
9139;BME280;4604;48.616;9.548;2023-02-20T12:02:53;97811.81;;;12.74;48.68
9139;BME280;4604;48.616;9.548;2023-02-20T12:05:21;97793.31;;;12.62;49.23
9139;BME280;4604;48.616;9.548;2023-02-20T12:08:01;97781.06;;;12.61;50.55
9139;BME280;4604;48.616;9.548;2023-02-20T12:10:39;97781.44;;;12.78;49.80
9139;BME280;4604;48.616;9.548;2023-02-20T12:13:11;97769.19;;;12.87;50.00
9139;BME280;4604;48.616;9.548;2023-02-20T12:15:39;97762.13;;;12.97;49.52
9139;BME280;4604;48.616;9.548;2023-02-20T12:18:37;97765.28;;;13.21;49.56
9139;BME280;4604;48.616;9.548;2023-02-20T12:21:16;97754.78;;;13.10;48.33
9139;BME280;4604;48.616;9.548;2023-02-20T12:23:57;97753.41;;;13.16;48.85
9139;BME280;4604;48.616;9.548;2023-02-20T12:26:45;97738.84;;;13.00;48.43
9139;BME280;4604;48.616;9.548;2023-02-20T12:29:23;97740.00;;;13.07;48.88
9139;BME280;4604;48.616;9.548;2023-02-20T12:32:02;97731.44;;;13.35;48.97
9139;BME280;4604;48.616;9.548;2023-02-20T12:34:52;97719.31;;;13.32;48.52
9139;BME280;4604;48.616;9.548;2023-02-20T12:37:28;97735.25;;;13.71;49.17
9139;BME280;4604;48.616;9.548;2023-02-20T12:40:07;97723.94;;;13.49;48.54
9139;BME280;4604;48.616;9.548;2023-02-20T12:42:47;97717.19;;;13.36;48.20
9139;BME280;4604;48.616;9.548;2023-02-20T12:45:22;97713.84;;;13.34;48.72
9139;BME280;4604;48.616;9.548;2023-02-20T12:48:06;97714.56;;;13.55;48.49
9139;BME280;4604;48.616;9.548;2023-02-20T12:50:42;97717.38;;;13.54;48.13
9139;BME280;4604;48.616;9.548;2023-02-20T12:53:35;97696.16;;;13.34;47.62
9139;BME280;4604;48.616;9.548;2023-02-20T12:56:13;97699.38;;;13.57;47.54
9139;BME280;4604;48.616;9.548;2023-02-20T12:58:53;97699.22;;;13.59;47.94
9139;BME280;4604;48.616;9.548;2023-02-20T13:01:22;97686.38;;;13.64;47.71
9139;BME280;4604;48.616;9.548;2023-02-20T13:03:57;97677.84;;;13.70;46.93
9139;BME280;4604;48.616;9.548;2023-02-20T13:06:32;97675.06;;;13.81;46.33
9139;BME280;4604;48.616;9.548;2023-02-20T13:09:06;97673.41;;;13.90;46.71
9139;BME280;4604;48.616;9.548;2023-02-20T13:11:41;97669.88;;;13.89;45.51
9139;BME280;4604;48.616;9.548;2023-02-20T13:14:22;97658.84;;;13.84;46.68
9139;BME280;4604;48.616;9.548;2023-02-20T13:16:56;97666.13;;;13.73;46.58
9139;BME280;4604;48.616;9.548;2023-02-20T13:19:29;97657.50;;;13.80;46.73
9139;BME280;4604;48.616;9.548;2023-02-20T13:21:59;97643.63;;;13.86;45.71
9139;BME280;4604;48.616;9.548;2023-02-20T13:24:27;97657.59;;;13.98;45.45
9139;BME280;4604;48.616;9.548;2023-02-20T13:26:55;97653.13;;;13.99;44.44
9139;BME280;4604;48.616;9.548;2023-02-20T13:29:24;97651.59;;;13.96;44.80
9139;BME280;4604;48.616;9.548;2023-02-20T13:31:53;97639.97;;;13.97;44.96
9139;BME280;4604;48.616;9.548;2023-02-20T13:34:28;97645.53;;;14.13;45.12
9139;BME280;4604;48.616;9.548;2023-02-20T13:36:56;97635.53;;;13.98;44.82
9139;BME280;4604;48.616;9.548;2023-02-20T13:39:40;97635.53;;;13.98;44.46
9139;BME280;4604;48.616;9.548;2023-02-20T13:42:28;97635.53;;;13.88;44.16
9139;BME280;4604;48.616;9.548;2023-02-20T13:44:57;97605.47;;;13.97;44.02
9139;BME280;4604;48.616;9.548;2023-02-20T13:47:42;97599.72;;;14.11;44.14
9139;BME280;4604;48.616;9.548;2023-02-20T13:50:30;97586.44;;;14.11;43.66
9139;BME280;4604;48.616;9.548;2023-02-20T13:53:01;97579.25;;;14.31;44.83
9139;BME280;4604;48.616;9.548;2023-02-20T13:55:28;97579.59;;;14.46;44.48